createdAt,value
2023-02-19T00:00:35.624Z,60.37
2023-02-19T00:03:02.127Z,60.28
2023-02-19T00:05:28.700Z,60.47
2023-02-19T00:07:55.284Z,60.65
2023-02-19T00:10:21.666Z,60.29
2023-02-19T00:12:48.321Z,60.36
2023-02-19T00:15:15.050Z,60.52
2023-02-19T00:17:41.758Z,60.19
2023-02-19T00:20:08.126Z,60.49
2023-02-19T00:22:34.625Z,60.37
2023-02-19T00:25:00.947Z,60.23
2023-02-19T00:27:27.625Z,60.56
2023-02-19T00:29:54.020Z,60.11
2023-02-19T00:32:20.774Z,60.34
2023-02-19T00:34:47.201Z,60.39
2023-02-19T00:37:13.593Z,60.11
2023-02-19T00:39:40.556Z,60.23
2023-02-19T00:42:06.965Z,60.29
2023-02-19T00:44:33.311Z,60.47
2023-02-19T00:46:59.625Z,60.21
2023-02-19T00:49:26.111Z,60.59
2023-02-19T00:51:52.712Z,60.40
2023-02-19T00:54:19.115Z,60.57
2023-02-19T00:56:45.484Z,60.36
2023-02-19T00:59:12.416Z,60.03
2023-02-19T01:01:38.701Z,60.19
2023-02-19T01:04:06.676Z,60.35
2023-02-19T01:06:33.285Z,60.39
2023-02-19T01:08:59.657Z,60.32
2023-02-19T01:11:26.220Z,60.33
2023-02-19T01:13:52.572Z,60.57
2023-02-19T01:16:18.953Z,60.14
2023-02-19T01:18:45.428Z,60.39
2023-02-19T01:21:12.051Z,60.27
2023-02-19T01:23:38.514Z,60.30
2023-02-19T01:26:05.072Z,60.59
2023-02-19T01:28:31.438Z,60.20
2023-02-19T01:30:57.842Z,60.20
2023-02-19T01:33:24.284Z,60.64
2023-02-19T01:35:50.681Z,60.68
2023-02-19T01:38:17.178Z,60.80
2023-02-19T01:40:43.545Z,60.71
2023-02-19T01:43:09.940Z,60.28
2023-02-19T01:45:36.610Z,60.39
2023-02-19T01:48:03.474Z,59.96
2023-02-19T01:50:30.274Z,60.03
2023-02-19T01:52:56.694Z,60.38
2023-02-19T01:55:23.271Z,60.09
2023-02-19T01:57:49.606Z,60.44
2023-02-19T02:00:16.116Z,60.50
2023-02-19T02:02:42.822Z,60.78
2023-02-19T02:05:11.217Z,60.76
2023-02-19T02:07:41.482Z,60.46
2023-02-19T02:10:08.468Z,60.27
2023-02-19T02:12:36.691Z,60.02
2023-02-19T02:15:03.054Z,60.29
2023-02-19T02:17:30.044Z,60.22
2023-02-19T02:19:56.538Z,60.57
2023-02-19T02:22:22.937Z,60.35
2023-02-19T02:24:49.940Z,60.37
2023-02-19T02:27:16.855Z,60.25
2023-02-19T02:29:43.472Z,60.25
2023-02-19T02:32:09.887Z,60.67
2023-02-19T02:34:36.213Z,60.52
2023-02-19T02:37:02.980Z,60.15
2023-02-19T02:39:29.495Z,60.40
2023-02-19T02:41:55.958Z,60.18
2023-02-19T02:44:22.355Z,60.39
2023-02-19T02:46:48.994Z,60.53
2023-02-19T02:49:15.568Z,60.12
2023-02-19T02:51:42.008Z,60.57
2023-02-19T02:54:08.710Z,60.54
2023-02-19T02:56:35.482Z,60.06
2023-02-19T02:59:01.835Z,60.24
2023-02-19T03:01:28.561Z,60.18
2023-02-19T03:03:56.445Z,60.42
2023-02-19T03:06:22.879Z,60.44
2023-02-19T03:08:49.413Z,60.28
2023-02-19T03:11:15.766Z,60.33
2023-02-19T03:13:42.153Z,60.40
2023-02-19T03:16:08.581Z,60.35
2023-02-19T03:18:35.664Z,60.45
2023-02-19T03:21:02.655Z,60.46
2023-02-19T03:23:29.675Z,60.45
2023-02-19T03:25:56.105Z,60.20
2023-02-19T03:28:22.511Z,60.49
2023-02-19T03:30:48.930Z,60.44
2023-02-19T03:33:15.325Z,60.40
2023-02-19T03:35:42.000Z,60.46
2023-02-19T03:38:08.638Z,60.62
2023-02-19T03:40:35.396Z,60.41
2023-02-19T03:43:01.751Z,60.13
2023-02-19T03:45:28.187Z,60.47
2023-02-19T03:47:55.023Z,60.14
2023-02-19T03:50:21.509Z,60.24
2023-02-19T03:52:47.963Z,60.35
2023-02-19T03:55:14.330Z,60.18
2023-02-19T03:57:40.720Z,60.15
2023-02-19T04:00:07.027Z,60.44
2023-02-19T04:02:33.467Z,60.28
2023-02-19T04:05:00.392Z,60.22
2023-02-19T04:07:28.825Z,60.15
2023-02-19T04:09:55.793Z,60.20
2023-02-19T04:12:23.761Z,60.42
2023-02-19T04:14:50.653Z,60.41
2023-02-19T04:17:17.125Z,60.46
2023-02-19T04:19:43.474Z,60.48
2023-02-19T04:22:09.924Z,60.46
2023-02-19T04:24:36.383Z,60.47
2023-02-19T04:27:02.973Z,60.29
2023-02-19T04:29:29.353Z,60.64
2023-02-19T04:31:55.733Z,60.42
2023-02-19T04:34:22.383Z,60.31
2023-02-19T04:36:49.036Z,60.46
2023-02-19T04:39:15.581Z,60.52
2023-02-19T04:41:41.932Z,60.70
2023-02-19T04:44:08.286Z,60.48
2023-02-19T04:46:34.747Z,60.71
2023-02-19T04:49:01.305Z,60.57
2023-02-19T04:51:27.670Z,60.60
2023-02-19T04:53:54.192Z,60.75
2023-02-19T04:56:20.549Z,60.72
2023-02-19T04:58:47.009Z,60.38
2023-02-19T05:01:13.752Z,60.28
2023-02-19T05:03:40.240Z,60.52
2023-02-19T05:06:07.004Z,60.44
2023-02-19T05:08:33.361Z,60.08
2023-02-19T05:10:59.688Z,60.30
2023-02-19T05:13:26.106Z,60.38
2023-02-19T05:15:52.743Z,60.20
2023-02-19T05:18:19.696Z,60.24
2023-02-19T05:20:46.063Z,60.32
2023-02-19T05:23:12.459Z,60.28
2023-02-19T05:25:38.848Z,60.35
2023-02-19T05:28:05.465Z,60.35
2023-02-19T05:30:32.178Z,60.37
2023-02-19T05:32:58.761Z,60.13
2023-02-19T05:35:25.133Z,59.97
2023-02-19T05:37:51.598Z,59.98
2023-02-19T05:40:18.021Z,60.09
2023-02-19T05:42:44.742Z,60.04
2023-02-19T05:45:11.902Z,60.06
2023-02-19T05:47:38.605Z,60.17
2023-02-19T05:50:05.112Z,60.11
2023-02-19T05:52:31.465Z,60.13
2023-02-19T05:54:58.148Z,59.82
2023-02-19T05:57:24.587Z,59.72
2023-02-19T05:59:50.979Z,60.05
2023-02-19T06:02:17.439Z,59.90
2023-02-19T06:04:43.845Z,59.95
2023-02-19T06:07:10.159Z,59.96
2023-02-19T06:09:36.478Z,60.12
2023-02-19T06:12:02.924Z,59.81
2023-02-19T06:14:29.365Z,60.07
2023-02-19T06:16:55.669Z,60.14
2023-02-19T06:19:22.023Z,59.94
2023-02-19T06:21:48.570Z,59.76
2023-02-19T06:24:15.068Z,59.92
2023-02-19T06:26:42.116Z,59.85
2023-02-19T06:29:08.864Z,60.03
2023-02-19T06:31:35.374Z,59.87
2023-02-19T06:34:01.906Z,59.81
2023-02-19T06:36:28.351Z,59.83
2023-02-19T06:38:54.829Z,60.08
2023-02-19T06:41:21.159Z,59.86
2023-02-19T06:43:47.770Z,59.97
2023-02-19T06:46:14.249Z,59.88
2023-02-19T06:48:40.662Z,59.79
2023-02-19T06:51:07.038Z,59.86
2023-02-19T06:53:33.327Z,59.86
2023-02-19T06:55:59.698Z,59.93
2023-02-19T06:58:26.465Z,59.67
2023-02-19T07:00:52.807Z,59.89
2023-02-19T07:03:19.375Z,59.99
2023-02-19T07:05:45.686Z,59.98
2023-02-19T07:08:12.105Z,59.96
2023-02-19T07:10:38.934Z,59.81
2023-02-19T07:13:05.531Z,59.84
2023-02-19T07:15:31.885Z,59.71
2023-02-19T07:17:58.482Z,59.87
2023-02-19T07:20:24.925Z,60.24
2023-02-19T07:22:51.280Z,59.94
2023-02-19T07:25:17.602Z,60.11
2023-02-19T07:27:44.189Z,60.19
2023-02-19T07:30:11.166Z,60.14
2023-02-19T07:32:37.490Z,59.74
2023-02-19T07:35:04.239Z,59.85
2023-02-19T07:37:30.607Z,59.84
2023-02-19T07:39:57.019Z,60.20
2023-02-19T07:42:23.773Z,59.81
2023-02-19T07:44:50.193Z,60.14
2023-02-19T07:47:16.543Z,59.75
2023-02-19T07:49:43.342Z,60.04
2023-02-19T07:52:09.686Z,60.16
2023-02-19T07:54:36.220Z,59.74
2023-02-19T07:57:03.240Z,60.14
2023-02-19T07:59:29.578Z,60.34
2023-02-19T08:01:55.916Z,60.00
2023-02-19T08:04:22.316Z,60.12
2023-02-19T08:06:48.977Z,59.94
2023-02-19T08:09:15.498Z,60.03
2023-02-19T08:11:41.862Z,60.12
2023-02-19T08:14:08.186Z,59.98
2023-02-19T08:16:42.935Z,60.09
2023-02-19T08:19:09.926Z,59.74
2023-02-19T08:21:36.501Z,60.03
2023-02-19T08:24:02.998Z,60.10
2023-02-19T08:26:29.354Z,60.15
2023-02-19T08:28:55.725Z,59.69
2023-02-19T08:31:22.177Z,60.04
2023-02-19T08:33:48.723Z,60.07
2023-02-19T08:36:15.347Z,59.86
2023-02-19T08:38:41.673Z,60.09
2023-02-19T08:41:08.454Z,59.83
2023-02-19T08:43:35.091Z,59.83
2023-02-19T08:46:01.769Z,60.08
2023-02-19T08:48:28.392Z,59.72
2023-02-19T08:50:54.993Z,59.95
2023-02-19T08:53:21.345Z,59.83
2023-02-19T08:55:47.679Z,59.89
2023-02-19T08:58:14.639Z,59.90
2023-02-19T09:00:41.242Z,59.93
2023-02-19T09:03:07.912Z,59.92
2023-02-19T09:05:34.340Z,60.11
2023-02-19T09:08:00.694Z,59.90
2023-02-19T09:10:27.104Z,59.97
2023-02-19T09:12:53.443Z,60.07
2023-02-19T09:15:19.819Z,59.77
2023-02-19T09:17:46.208Z,59.86
2023-02-19T09:20:12.778Z,60.03
2023-02-19T09:22:39.110Z,59.91
2023-02-19T09:25:05.619Z,59.97
2023-02-19T09:27:32.009Z,60.02
2023-02-19T09:29:58.582Z,59.97
2023-02-19T09:32:25.369Z,60.07
2023-02-19T09:34:51.734Z,60.02
2023-02-19T09:37:18.250Z,60.02
2023-02-19T09:39:44.803Z,60.20
2023-02-19T09:42:11.101Z,60.03
2023-02-19T09:44:37.516Z,60.15
2023-02-19T09:47:03.838Z,60.19
2023-02-19T09:49:30.131Z,60.10
2023-02-19T09:51:56.739Z,60.02
2023-02-19T09:54:23.448Z,60.15
2023-02-19T09:56:49.875Z,60.05
2023-02-19T09:59:16.317Z,60.13
2023-02-19T10:01:42.656Z,59.97
2023-02-19T10:04:09.693Z,60.03
2023-02-19T10:06:36.120Z,59.84
2023-02-19T10:09:02.578Z,60.02
2023-02-19T10:11:28.903Z,59.80
2023-02-19T10:13:55.229Z,60.14
2023-02-19T10:16:21.581Z,60.06
2023-02-19T10:18:47.918Z,60.06
2023-02-19T10:21:14.225Z,59.85
2023-02-19T10:23:40.809Z,59.87
2023-02-19T10:26:07.441Z,60.14
2023-02-19T10:28:33.986Z,59.95
2023-02-19T10:31:00.346Z,60.07
2023-02-19T10:33:26.714Z,59.80
2023-02-19T10:35:53.258Z,59.63
2023-02-19T10:38:19.587Z,59.77
2023-02-19T10:40:45.933Z,60.04
2023-02-19T10:43:12.418Z,60.01
2023-02-19T10:45:38.720Z,59.93
2023-02-19T10:48:05.258Z,59.81
2023-02-19T10:50:32.227Z,60.14
2023-02-19T10:52:58.640Z,59.94
2023-02-19T10:55:25.098Z,59.83
2023-02-19T10:57:51.426Z,60.00
2023-02-19T11:00:17.784Z,59.75
2023-02-19T11:02:44.158Z,59.94
2023-02-19T11:05:11.007Z,59.80
2023-02-19T11:07:37.395Z,59.99
2023-02-19T11:10:04.178Z,59.79
2023-02-19T11:12:30.502Z,59.99
2023-02-19T11:14:56.912Z,59.88
2023-02-19T11:17:23.415Z,59.87
2023-02-19T11:19:49.889Z,59.92
2023-02-19T11:22:16.210Z,59.61
2023-02-19T11:24:42.503Z,59.71
2023-02-19T11:27:08.904Z,59.63
2023-02-19T11:29:35.309Z,59.59
2023-02-19T11:32:01.971Z,59.63
2023-02-19T11:34:28.402Z,59.38
2023-02-19T11:36:54.918Z,59.52
2023-02-19T11:39:21.248Z,59.70
2023-02-19T11:41:47.833Z,59.47
2023-02-19T11:44:14.224Z,59.63
2023-02-19T11:46:40.689Z,59.78
2023-02-19T11:49:07.451Z,59.75
2023-02-19T11:51:33.921Z,59.41
2023-02-19T11:54:00.869Z,59.40
2023-02-19T11:56:27.387Z,59.58
2023-02-19T11:58:54.259Z,59.51
2023-02-19T12:01:21.005Z,59.51
2023-02-19T12:03:47.782Z,59.91
2023-02-19T12:06:14.099Z,59.62
2023-02-19T12:08:40.461Z,59.80
2023-02-19T12:11:07.152Z,59.83
2023-02-19T12:13:33.448Z,59.41
2023-02-19T12:15:59.874Z,59.54
2023-02-19T12:18:26.549Z,59.64
2023-02-19T12:20:53.250Z,59.52
2023-02-19T12:23:19.851Z,59.73
2023-02-19T12:25:46.576Z,59.74
2023-02-19T12:28:12.925Z,59.34
2023-02-19T12:30:39.969Z,59.54
2023-02-19T12:33:06.441Z,59.43
2023-02-19T12:35:33.042Z,59.67
2023-02-19T12:37:59.503Z,59.52
2023-02-19T12:40:25.915Z,59.63
2023-02-19T12:42:52.305Z,59.65
2023-02-19T12:45:18.787Z,59.63
2023-02-19T12:47:45.154Z,59.55
2023-02-19T12:50:11.793Z,59.51
2023-02-19T12:52:38.140Z,59.42
2023-02-19T12:55:04.795Z,59.36
2023-02-19T12:57:31.124Z,59.25
2023-02-19T12:59:57.498Z,59.24
2023-02-19T13:02:24.146Z,59.15
2023-02-19T13:04:50.527Z,59.10
2023-02-19T13:07:16.933Z,59.04
2023-02-19T13:09:43.508Z,59.02
2023-02-19T13:12:09.809Z,59.13
2023-02-19T13:14:36.158Z,58.89
2023-02-19T13:17:02.516Z,58.85
2023-02-19T13:19:28.960Z,59.06
2023-02-19T13:21:55.282Z,58.88
2023-02-19T13:24:21.951Z,59.04
2023-02-19T13:26:48.317Z,58.87
2023-02-19T13:29:14.587Z,58.95
2023-02-19T13:31:41.256Z,58.95
2023-02-19T13:34:07.609Z,59.20
2023-02-19T13:36:34.132Z,59.08
2023-02-19T13:39:00.467Z,59.26
2023-02-19T13:41:26.749Z,58.86
2023-02-19T13:43:53.163Z,58.01
2023-02-19T13:46:19.710Z,58.93
2023-02-19T13:48:46.098Z,58.70
2023-02-19T13:51:12.884Z,59.26
2023-02-19T13:53:39.519Z,59.71
2023-02-19T13:56:06.194Z,59.95
2023-02-19T13:58:32.763Z,59.97
2023-02-19T14:00:59.300Z,60.49
2023-02-19T14:03:25.789Z,60.85
2023-02-19T14:05:52.502Z,60.72
2023-02-19T14:08:18.887Z,61.16
2023-02-19T14:10:45.224Z,61.45
2023-02-19T14:13:12.157Z,61.56
2023-02-19T14:15:38.671Z,61.86
2023-02-19T14:18:05.156Z,62.04
2023-02-19T14:20:31.797Z,61.93
2023-02-19T14:22:58.336Z,61.70
2023-02-19T14:25:24.664Z,61.37
2023-02-19T14:27:51.434Z,61.79
2023-02-19T14:30:17.830Z,61.75
2023-02-19T14:32:47.415Z,61.93
2023-02-19T14:35:17.298Z,62.36
2023-02-19T14:37:43.678Z,62.64
2023-02-19T14:40:10.325Z,62.75
2023-02-19T14:42:36.710Z,62.79
2023-02-19T14:45:03.185Z,62.93
2023-02-19T14:47:29.530Z,62.77
2023-02-19T14:49:55.973Z,62.87
2023-02-19T14:52:22.313Z,63.34
2023-02-19T14:54:48.663Z,63.12
2023-02-19T14:57:15.415Z,63.31
2023-02-19T14:59:41.817Z,63.22
2023-02-19T15:02:08.257Z,63.59
2023-02-19T15:04:35.832Z,63.35
2023-02-19T15:07:02.316Z,63.39
2023-02-19T15:09:29.442Z,63.52
2023-02-19T15:11:55.844Z,63.37
2023-02-19T15:14:22.210Z,63.52
2023-02-19T15:16:49.586Z,63.27
2023-02-19T15:19:16.258Z,63.44
2023-02-19T15:21:42.679Z,63.40
2023-02-19T15:24:09.140Z,63.48
2023-02-19T15:26:36.033Z,63.48
2023-02-19T15:29:02.638Z,63.66
2023-02-19T15:31:29.218Z,63.74
2023-02-19T15:33:56.211Z,63.53
2023-02-19T15:36:22.555Z,63.46
2023-02-19T15:38:49.004Z,63.59
2023-02-19T15:41:15.490Z,63.48
2023-02-19T15:43:41.845Z,63.50
2023-02-19T15:46:08.648Z,63.48
2023-02-19T15:48:34.986Z,63.47
2023-02-19T15:51:01.478Z,63.39
2023-02-19T15:53:27.870Z,63.33
2023-02-19T15:55:54.281Z,63.49
2023-02-19T15:58:21.288Z,63.48
2023-02-19T16:00:47.633Z,63.82
2023-02-19T16:03:14.026Z,63.29
2023-02-19T16:05:40.802Z,63.24
2023-02-19T16:08:07.165Z,63.24
2023-02-19T16:10:33.505Z,63.50
2023-02-19T16:12:59.966Z,63.48
2023-02-19T16:15:26.436Z,63.35
2023-02-19T16:17:52.834Z,63.17
2023-02-19T16:20:19.599Z,63.41
2023-02-19T16:22:46.050Z,63.22
2023-02-19T16:25:13.244Z,62.68
2023-02-19T16:27:39.707Z,62.56
2023-02-19T16:30:06.212Z,61.79
2023-02-19T16:32:32.670Z,61.32
2023-02-19T16:34:59.189Z,60.70
2023-02-19T16:37:25.610Z,60.29
2023-02-19T16:39:51.913Z,60.18
2023-02-19T16:42:18.698Z,60.51
2023-02-19T16:44:45.616Z,60.68
2023-02-19T16:47:12.189Z,60.54
2023-02-19T16:49:38.746Z,60.62
2023-02-19T16:52:05.370Z,60.71
2023-02-19T16:54:31.831Z,60.92
2023-02-19T16:56:58.267Z,61.00
2023-02-19T16:59:25.025Z,61.13
2023-02-19T17:01:51.475Z,61.13
2023-02-19T17:04:18.256Z,60.91
2023-02-19T17:06:44.662Z,60.96
2023-02-19T17:09:11.212Z,61.18
2023-02-19T17:11:37.883Z,60.79
2023-02-19T17:14:04.286Z,60.72
2023-02-19T17:16:30.619Z,60.82
2023-02-19T17:18:57.159Z,60.69
2023-02-19T17:21:23.570Z,60.68
2023-02-19T17:23:49.899Z,60.68
2023-02-19T17:26:16.230Z,60.87
2023-02-19T17:28:42.533Z,60.67
2023-02-19T17:31:09.027Z,61.07
2023-02-19T17:33:35.450Z,60.72
2023-02-19T17:36:01.795Z,61.13
2023-02-19T17:38:28.109Z,60.86
2023-02-19T17:40:54.489Z,61.15
2023-02-19T17:43:21.249Z,60.84
2023-02-19T17:45:47.746Z,60.81
2023-02-19T17:48:14.101Z,60.97
2023-02-19T17:50:40.621Z,60.81
2023-02-19T17:53:07.423Z,60.46
2023-02-19T17:55:33.953Z,60.83
2023-02-19T17:58:00.572Z,60.70
2023-02-19T18:00:26.866Z,60.56
2023-02-19T18:02:53.210Z,61.02
2023-02-19T18:05:19.829Z,60.56
2023-02-19T18:07:46.392Z,60.68
2023-02-19T18:10:12.746Z,60.49
2023-02-19T18:12:39.561Z,60.38
2023-02-19T18:15:05.926Z,60.22
2023-02-19T18:17:32.411Z,60.73
2023-02-19T18:19:58.856Z,60.61
2023-02-19T18:22:25.143Z,60.29
2023-02-19T18:24:51.568Z,60.18
2023-02-19T18:27:18.151Z,60.59
2023-02-19T18:29:44.878Z,60.21
2023-02-19T18:32:11.278Z,60.17
2023-02-19T18:34:38.215Z,60.51
2023-02-19T18:37:04.544Z,60.40
2023-02-19T18:39:30.884Z,60.13
2023-02-19T18:41:57.208Z,60.15
2023-02-19T18:44:24.127Z,60.53
2023-02-19T18:46:50.588Z,60.51
2023-02-19T18:49:16.986Z,60.42
2023-02-19T18:51:43.541Z,60.70
2023-02-19T18:54:10.024Z,60.45
2023-02-19T18:56:36.892Z,60.53
2023-02-19T18:59:03.369Z,60.42
2023-02-19T19:01:29.760Z,60.55
2023-02-19T19:03:56.673Z,60.22
2023-02-19T19:06:23.075Z,60.41
2023-02-19T19:08:49.662Z,60.24
2023-02-19T19:11:16.028Z,59.95
2023-02-19T19:13:42.383Z,60.05
2023-02-19T19:16:09.643Z,59.81
2023-02-19T19:18:36.515Z,59.96
2023-02-19T19:21:03.075Z,59.54
2023-02-19T19:23:29.413Z,59.55
2023-02-19T19:25:55.836Z,59.18
2023-02-19T19:28:22.314Z,59.32
2023-02-19T19:30:49.402Z,59.45
2023-02-19T19:33:17.749Z,59.10
2023-02-19T19:35:44.882Z,59.07
2023-02-19T19:38:12.331Z,58.89
2023-02-19T19:40:40.228Z,58.62
2023-02-19T19:43:07.950Z,58.73
2023-02-19T19:45:34.424Z,58.23
2023-02-19T19:48:00.805Z,58.37
2023-02-19T19:50:27.893Z,58.93
2023-02-19T19:52:55.169Z,58.57
2023-02-19T19:55:21.871Z,58.28
2023-02-19T19:57:48.271Z,58.02
2023-02-19T20:00:14.578Z,57.86
2023-02-19T20:02:41.235Z,57.73
2023-02-19T20:05:07.652Z,57.81
2023-02-19T20:07:34.007Z,57.87
2023-02-19T20:10:00.416Z,57.43
2023-02-19T20:12:27.375Z,57.22
2023-02-19T20:14:54.288Z,57.20
2023-02-19T20:17:20.917Z,57.42
2023-02-19T20:19:47.277Z,57.02
2023-02-19T20:22:13.854Z,57.16
2023-02-19T20:24:40.237Z,57.18
2023-02-19T20:27:06.991Z,57.25
2023-02-19T20:29:33.608Z,56.94
2023-02-19T20:32:00.490Z,57.01
2023-02-19T20:34:26.904Z,57.02
2023-02-19T20:36:53.521Z,56.86
2023-02-19T20:39:20.100Z,56.72
2023-02-19T20:41:46.612Z,56.70
2023-02-19T20:44:13.100Z,56.44
2023-02-19T20:46:39.939Z,56.66
2023-02-19T20:49:06.675Z,56.60
2023-02-19T20:51:33.329Z,56.57
2023-02-19T20:53:59.821Z,56.28
2023-02-19T20:56:26.246Z,56.63
2023-02-19T20:58:53.282Z,56.37
2023-02-19T21:01:19.787Z,56.54
2023-02-19T21:03:46.185Z,56.37
2023-02-19T21:06:12.882Z,56.57
2023-02-19T21:08:39.885Z,56.37
2023-02-19T21:11:06.566Z,56.08
2023-02-19T21:13:33.061Z,56.25
2023-02-19T21:15:59.456Z,56.28
2023-02-19T21:18:26.334Z,55.75
2023-02-19T21:20:53.058Z,55.94
2023-02-19T21:23:19.542Z,55.77
2023-02-19T21:25:45.847Z,55.84
2023-02-19T21:28:12.158Z,55.82
2023-02-19T21:30:38.549Z,56.13
2023-02-19T21:33:05.017Z,55.93
2023-02-19T21:35:31.641Z,56.05
2023-02-19T21:37:58.036Z,55.96
2023-02-19T21:40:24.508Z,55.78
2023-02-19T21:42:51.074Z,55.94
2023-02-19T21:45:17.417Z,56.02
2023-02-19T21:47:43.742Z,55.93
2023-02-19T21:50:10.156Z,55.88
2023-02-19T21:52:36.541Z,55.82
2023-02-19T21:55:02.808Z,55.73
2023-02-19T21:57:29.287Z,55.61
2023-02-19T21:59:55.853Z,55.75
2023-02-19T22:02:22.280Z,55.52
2023-02-19T22:04:49.093Z,55.55
2023-02-19T22:07:15.436Z,55.63
2023-02-19T22:09:42.232Z,55.57
2023-02-19T22:12:08.559Z,55.55
2023-02-19T22:14:35.043Z,55.70
2023-02-19T22:17:01.751Z,55.66
2023-02-19T22:19:28.442Z,55.68
2023-02-19T22:21:54.789Z,55.32
2023-02-19T22:24:21.154Z,55.56
2023-02-19T22:26:47.518Z,55.71
2023-02-19T22:29:13.983Z,55.75
2023-02-19T22:31:40.374Z,55.31
2023-02-19T22:34:07.294Z,55.46
2023-02-19T22:36:34.127Z,55.19
2023-02-19T22:39:00.561Z,55.04
2023-02-19T22:41:27.279Z,55.28
2023-02-19T22:43:53.695Z,55.60
2023-02-19T22:46:20.080Z,54.99
2023-02-19T22:48:46.727Z,55.52
2023-02-19T22:51:13.163Z,54.92
2023-02-19T22:53:39.592Z,55.34
2023-02-19T22:56:05.960Z,55.27
2023-02-19T22:58:32.308Z,55.09
2023-02-19T23:00:58.837Z,55.78
2023-02-19T23:03:25.795Z,55.26
2023-02-19T23:05:52.150Z,55.75
2023-02-19T23:08:18.894Z,55.55
2023-02-19T23:10:45.295Z,55.18
2023-02-19T23:13:11.804Z,55.42
2023-02-19T23:15:38.172Z,55.11
2023-02-19T23:18:04.788Z,55.00
2023-02-19T23:20:31.126Z,55.12
2023-02-19T23:22:57.584Z,55.37
2023-02-19T23:25:23.938Z,54.87
2023-02-19T23:27:50.244Z,54.91
2023-02-19T23:30:16.736Z,54.83
2023-02-19T23:32:43.369Z,55.20
2023-02-19T23:35:09.695Z,55.42
2023-02-19T23:37:36.123Z,55.31
2023-02-19T23:40:02.805Z,55.15
2023-02-19T23:42:29.208Z,55.22
2023-02-19T23:44:55.533Z,55.38
2023-02-19T23:47:21.929Z,55.16
2023-02-19T23:49:48.339Z,55.06
2023-02-19T23:52:15.266Z,55.42
2023-02-19T23:54:41.752Z,55.48
2023-02-19T23:57:08.679Z,55.45
2023-02-19T23:59:35.038Z,55.23
